Main page
METAR-TAF:

METAR-TAF

Airports :

Lossiemouth, Scotland

RAF Lossiemouth

latitude: 57-43N, longitude: 003-19W, elevation: 13 m

Current weather observation

The report was made 24 minutes ago, at 06:50 UTC
Wind 4 kt from the North/Northeast
Temperature 15°C
Humidity 88%
Pressure 1017 hPa
Visibility 10 km or more
no clouds below 1500 m and no cumulonimbus

METAR: EGQS 260650Z 02004KT CAVOK 15/13 Q1017 BLU NOSIG

Time: 08:14 (07:14 UTC)

Forecast

The report was made 2 hours and 46 minutes ago, at 04:28 UTC
Forecast valid from 26 at 06 UTC to 26 at 24 UTC
Wind 3 kt from the East/Southeast
Visibility 10 km or more
Few clouds at a height of 4500 ft

TAF: EGQS 260428Z 2606/2624 12003KT 9999 FEW045

Weather observations and forecasts of more than 4000 airports (METAR and TAF reports).

The available stations are represented by yellow and red dots on the map.

Hover mouse over dot to see the name of the station.

Then click to see weather observations and forecasts.

To change the map : click on the green buttons with a black cross to zoom in, on the green button with a dash to zoom out, or on the green arrows for adjacent maps.


METAR-TAF: